createdAt,value
2023-03-12T00:00:08.525Z,1.27
2023-03-12T00:02:38.549Z,1.27
2023-03-12T00:05:09.119Z,1.17
2023-03-12T00:07:39.338Z,1.22
2023-03-12T00:10:10.810Z,1.30
2023-03-12T00:12:39.855Z,1.20
2023-03-12T00:15:11.946Z,1.15
2023-03-12T00:17:43.334Z,1.22
2023-03-12T00:20:16.636Z,1.15
2023-03-12T00:22:45.432Z,1.15
2023-03-12T00:25:17.355Z,1.16
2023-03-12T00:27:49.393Z,1.16
2023-03-12T00:30:19.775Z,1.24
2023-03-12T00:32:49.411Z,1.15
2023-03-12T00:35:18.109Z,1.15
2023-03-12T00:37:52.151Z,1.13
2023-03-12T00:40:24.036Z,1.09
2023-03-12T00:42:52.900Z,1.10
2023-03-12T00:45:22.692Z,0.96
2023-03-12T00:47:54.475Z,0.96
2023-03-12T00:50:24.245Z,0.91
2023-03-12T00:52:53.431Z,0.88
2023-03-12T00:55:23.911Z,0.91
2023-03-12T00:57:53.499Z,0.86
2023-03-12T01:00:23.142Z,0.85
2023-03-12T01:02:51.926Z,0.96
2023-03-12T01:05:20.616Z,0.95
2023-03-12T01:07:48.893Z,0.85
2023-03-12T01:10:21.528Z,1.04
2023-03-12T01:12:51.565Z,0.97
2023-03-12T01:15:23.479Z,0.99
2023-03-12T01:17:52.357Z,0.96
2023-03-12T01:20:23.405Z,1.03
2023-03-12T01:22:52.569Z,0.83
2023-03-12T01:25:20.921Z,0.91
2023-03-12T01:27:51.608Z,0.82
2023-03-12T01:30:20.424Z,0.97
2023-03-12T01:32:48.937Z,0.91
2023-03-12T01:35:17.580Z,0.88
2023-03-12T01:37:46.992Z,0.88
2023-03-12T01:40:17.230Z,0.83
2023-03-12T01:42:52.668Z,0.86
2023-03-12T01:46:01.003Z,0.79
2023-03-12T01:48:35.565Z,0.68
2023-03-12T01:51:04.436Z,0.61
2023-03-12T01:53:34.779Z,0.57
2023-03-12T01:56:05.085Z,0.44
2023-03-12T01:58:35.840Z,0.40
2023-03-12T02:01:06.001Z,0.33
2023-03-12T02:03:35.959Z,0.43
2023-03-12T02:06:10.187Z,0.37
2023-03-12T02:08:42.938Z,0.20
2023-03-12T02:11:11.595Z,0.14
2023-03-12T02:13:41.945Z,0.13
2023-03-12T02:16:13.893Z,0.24
2023-03-12T02:18:42.942Z,0.10
2023-03-12T02:21:18.597Z,0.03
2023-03-12T02:23:57.312Z,0.06
2023-03-12T02:26:30.932Z,-0.10
2023-03-12T02:29:01.538Z,-0.13
2023-03-12T02:31:37.679Z,-0.25
2023-03-12T02:34:06.255Z,-0.05
2023-03-12T02:36:34.648Z,-0.25
2023-03-12T02:39:03.792Z,-0.32
2023-03-12T02:41:37.703Z,-0.31
2023-03-12T02:44:10.042Z,-0.44
2023-03-12T02:46:42.941Z,-0.38
2023-03-12T02:49:13.743Z,-0.58
2023-03-12T02:51:42.767Z,-0.45
2023-03-12T02:54:14.967Z,-0.53
2023-03-12T02:56:44.587Z,-0.41
2023-03-12T02:59:14.367Z,-0.48
2023-03-12T03:01:43.507Z,-0.56
2023-03-12T03:04:14.020Z,-0.62
2023-03-12T03:06:45.583Z,-0.79
2023-03-12T03:09:14.153Z,-0.68
2023-03-12T03:11:44.062Z,-0.62
2023-03-12T03:14:12.728Z,-0.74
2023-03-12T03:16:41.391Z,-0.73
2023-03-12T03:19:11.366Z,-0.84
2023-03-12T03:21:40.700Z,-0.96
2023-03-12T03:24:09.592Z,-0.73
2023-03-12T03:26:41.272Z,-0.72
2023-03-12T03:29:11.524Z,-0.74
2023-03-12T03:31:40.942Z,-0.86
2023-03-12T03:34:09.494Z,-0.77
2023-03-12T03:36:37.844Z,-1.00
2023-03-12T03:39:07.216Z,-1.04
2023-03-12T03:41:35.739Z,-0.92
2023-03-12T03:44:05.511Z,-1.24
2023-03-12T03:46:35.637Z,-1.18
2023-03-12T03:49:05.940Z,-1.24
2023-03-12T03:51:34.501Z,-1.34
2023-03-12T03:54:04.340Z,-1.38
2023-03-12T03:56:34.330Z,-1.52
2023-03-12T03:59:04.297Z,-1.76
2023-03-12T04:01:32.535Z,-1.65
2023-03-12T04:04:02.737Z,-1.62
2023-03-12T04:06:32.375Z,-1.32
2023-03-12T04:09:01.446Z,-0.94
2023-03-12T04:11:30.868Z,-0.94
2023-03-12T04:13:59.358Z,-1.05
2023-03-12T04:16:28.243Z,-1.14
2023-03-12T04:18:58.030Z,-1.08
2023-03-12T04:21:28.501Z,-1.11
2023-03-12T04:23:56.877Z,-1.03
2023-03-12T04:26:25.746Z,-1.04
2023-03-12T04:28:57.379Z,-1.24
2023-03-12T04:31:28.030Z,-1.30
2023-03-12T04:33:58.350Z,-1.21
2023-03-12T04:36:32.568Z,-1.21
2023-03-12T04:39:01.674Z,-1.25
2023-03-12T04:41:31.388Z,-1.28
2023-03-12T04:44:00.445Z,-1.18
2023-03-12T04:46:33.290Z,-1.20
2023-03-12T04:49:03.365Z,-1.24
2023-03-12T04:51:35.768Z,-1.22
2023-03-12T04:54:04.420Z,-1.20
2023-03-12T04:56:33.255Z,-1.07
2023-03-12T04:59:03.279Z,-1.24
2023-03-12T05:01:34.018Z,-1.30
2023-03-12T05:04:04.162Z,-1.15
2023-03-12T05:06:34.982Z,-1.20
2023-03-12T05:09:04.197Z,-1.22
2023-03-12T05:11:34.369Z,-1.08
2023-03-12T05:14:06.724Z,-1.03
2023-03-12T05:16:35.418Z,-1.20
2023-03-12T05:19:05.301Z,-1.15
2023-03-12T05:21:35.073Z,-1.20
2023-03-12T05:24:05.855Z,-1.21
2023-03-12T05:26:35.253Z,-1.24
2023-03-12T05:29:07.015Z,-1.25
2023-03-12T05:31:36.915Z,-1.20
2023-03-12T05:34:07.324Z,-1.21
2023-03-12T05:36:37.529Z,-1.25
2023-03-12T05:39:07.518Z,-1.28
2023-03-12T05:41:36.109Z,-1.17
2023-03-12T05:44:04.548Z,-1.07
2023-03-12T05:46:33.436Z,-1.07
2023-03-12T05:49:04.561Z,-0.90
2023-03-12T05:51:33.749Z,-0.90
2023-03-12T05:54:04.668Z,-0.82
2023-03-12T05:56:33.983Z,-0.73
2023-03-12T05:59:03.402Z,-0.80
2023-03-12T06:01:34.968Z,-0.73
2023-03-12T06:04:03.305Z,-0.66
2023-03-12T06:06:31.842Z,-0.65
2023-03-12T06:09:00.875Z,-0.58
2023-03-12T06:11:32.264Z,-0.55
2023-03-12T06:14:01.876Z,-0.39
2023-03-12T06:16:30.710Z,-0.36
2023-03-12T06:19:01.558Z,-0.38
2023-03-12T06:21:32.630Z,-0.29
2023-03-12T06:24:02.326Z,-0.19
2023-03-12T06:26:36.565Z,-0.18
2023-03-12T06:29:04.800Z,-0.13
2023-03-12T06:31:35.505Z,0.02
2023-03-12T06:34:07.305Z,0.05
2023-03-12T06:36:37.645Z,0.13
2023-03-12T06:39:08.714Z,0.13
2023-03-12T06:41:43.532Z,0.21
2023-03-12T06:44:12.377Z,0.48
2023-03-12T06:46:44.096Z,0.53
2023-03-12T06:49:14.591Z,0.45
2023-03-12T06:51:42.708Z,0.69
2023-03-12T06:54:10.887Z,0.60
2023-03-12T06:56:43.130Z,0.72
2023-03-12T06:59:11.619Z,0.62
2023-03-12T07:01:40.070Z,0.75
2023-03-12T07:04:09.980Z,0.82
2023-03-12T07:06:39.545Z,0.85
2023-03-12T07:09:11.880Z,1.12
2023-03-12T07:11:42.101Z,1.03
2023-03-12T07:14:11.687Z,1.31
2023-03-12T07:16:40.133Z,1.27
2023-03-12T07:19:09.971Z,1.31
2023-03-12T07:21:40.838Z,1.33
2023-03-12T07:24:10.729Z,1.51
2023-03-12T07:26:40.031Z,1.68
2023-03-12T07:29:12.768Z,1.52
2023-03-12T07:31:45.500Z,1.70
2023-03-12T07:34:14.332Z,1.64
2023-03-12T07:36:43.186Z,1.62
2023-03-12T07:39:11.646Z,1.75
2023-03-12T07:41:42.658Z,1.79
2023-03-12T07:44:12.706Z,1.83
2023-03-12T07:46:41.268Z,2.08
2023-03-12T07:49:11.304Z,1.98
2023-03-12T07:51:39.829Z,2.09
2023-03-12T07:54:08.675Z,2.13
2023-03-12T07:56:37.056Z,2.19
2023-03-12T07:59:06.892Z,2.23
2023-03-12T08:01:37.150Z,2.16
2023-03-12T08:04:06.329Z,2.15
2023-03-12T08:06:34.987Z,2.23
2023-03-12T08:09:03.445Z,2.23
2023-03-12T08:11:33.955Z,2.27
2023-03-12T08:14:02.247Z,2.25
2023-03-12T08:16:31.158Z,2.53
2023-03-12T08:19:01.790Z,2.44
2023-03-12T08:21:32.686Z,2.46
2023-03-12T08:24:01.872Z,2.89
2023-03-12T08:26:35.742Z,3.05
2023-03-12T08:29:04.241Z,2.58
2023-03-12T08:31:33.550Z,2.44
2023-03-12T08:34:03.347Z,2.73
2023-03-12T08:36:31.911Z,3.18
2023-03-12T08:39:00.595Z,2.88
2023-03-12T08:41:31.791Z,3.30
2023-03-12T08:44:00.919Z,3.25
2023-03-12T08:46:29.640Z,3.09
2023-03-12T08:48:58.451Z,2.99
2023-03-12T08:51:29.482Z,3.23
2023-03-12T08:54:01.873Z,3.11
2023-03-12T08:56:30.235Z,3.19
2023-03-12T08:59:01.471Z,3.47
2023-03-12T09:01:31.651Z,3.91
2023-03-12T09:04:00.041Z,3.69
2023-03-12T09:06:35.791Z,3.50
2023-03-12T09:09:05.893Z,3.75
2023-03-12T09:11:35.978Z,3.66
2023-03-12T09:16:55.580Z,3.90
2023-03-12T09:19:25.126Z,3.95
2023-03-12T09:21:57.761Z,3.93
2023-03-12T09:24:27.360Z,4.23
2023-03-12T09:26:55.692Z,4.49
2023-03-12T09:29:25.942Z,4.19
2023-03-12T09:31:57.292Z,4.33
2023-03-12T09:34:26.489Z,4.22
2023-03-12T09:36:57.111Z,4.42
2023-03-12T09:39:26.283Z,4.59
2023-03-12T09:41:56.703Z,4.41
2023-03-12T09:44:33.750Z,4.49
2023-03-12T09:47:06.693Z,4.31
2023-03-12T09:49:41.200Z,4.67
2023-03-12T09:52:23.788Z,5.05
2023-03-12T09:55:01.105Z,4.35
2023-03-12T09:57:30.751Z,5.11
2023-03-12T10:00:00.288Z,5.04
2023-03-12T10:02:51.918Z,4.87
2023-03-12T10:05:27.836Z,4.95
2023-03-12T10:08:13.733Z,4.84
2023-03-12T10:10:56.328Z,4.73
2023-03-12T10:13:46.624Z,5.56
2023-03-12T10:16:32.548Z,5.59
2023-03-12T10:19:14.338Z,5.50
2023-03-12T10:21:51.643Z,5.97
2023-03-12T10:24:34.071Z,5.62
2023-03-12T10:27:09.666Z,5.46
2023-03-12T10:29:44.692Z,5.96
2023-03-12T10:32:20.914Z,5.67
2023-03-12T10:34:55.659Z,5.97
2023-03-12T10:37:27.377Z,6.20
2023-03-12T10:39:57.465Z,6.10
2023-03-12T10:42:28.855Z,6.16
2023-03-12T10:45:01.169Z,6.20
2023-03-12T10:47:36.403Z,5.83
2023-03-12T10:50:18.523Z,6.25
2023-03-12T10:52:49.076Z,6.27
2023-03-12T10:55:26.365Z,6.68
2023-03-12T10:57:54.918Z,6.56
2023-03-12T11:00:26.476Z,6.42
2023-03-12T11:03:00.620Z,6.68
2023-03-12T11:05:33.199Z,7.72
2023-03-12T11:08:03.434Z,8.02
2023-03-12T11:10:48.689Z,7.42
2023-03-12T11:13:29.224Z,6.93
2023-03-12T11:15:58.918Z,7.04
2023-03-12T11:18:36.794Z,6.94
2023-03-12T11:21:18.774Z,7.17
2023-03-12T11:24:09.086Z,6.73
2023-03-12T11:26:49.396Z,6.96
2023-03-12T11:29:28.424Z,6.85
2023-03-12T11:32:06.067Z,7.07
2023-03-12T11:34:38.547Z,7.32
2023-03-12T11:37:14.211Z,7.28
2023-03-12T11:40:01.516Z,7.30
2023-03-12T11:42:40.490Z,7.28
2023-03-12T11:45:19.478Z,7.51
2023-03-12T11:48:00.661Z,7.52
2023-03-12T11:50:42.857Z,8.30
2023-03-12T11:53:23.092Z,8.45
2023-03-12T11:56:00.949Z,8.78
2023-03-12T11:58:46.785Z,8.07
2023-03-12T12:01:28.678Z,8.67
2023-03-12T12:04:12.247Z,8.42
2023-03-12T12:06:52.677Z,8.09
2023-03-12T12:09:33.993Z,8.19
2023-03-12T12:12:18.880Z,8.16
2023-03-12T12:15:10.483Z,7.97
2023-03-12T12:17:50.243Z,7.66
2023-03-12T12:20:29.006Z,7.58
2023-03-12T12:23:10.748Z,8.21
2023-03-12T12:25:50.710Z,7.86
2023-03-12T12:28:47.680Z,8.07
2023-03-12T12:31:32.222Z,7.85
2023-03-12T12:34:30.856Z,8.26
2023-03-12T12:37:11.315Z,8.17
2023-03-12T12:39:46.989Z,8.04
2023-03-12T12:42:20.807Z,8.19
2023-03-12T12:44:52.483Z,8.65
2023-03-12T12:47:33.035Z,8.40
2023-03-12T12:50:02.990Z,8.85
2023-03-12T12:52:33.175Z,9.13
2023-03-12T12:55:12.274Z,10.12
2023-03-12T12:57:45.956Z,9.05
2023-03-12T13:00:24.296Z,10.59
2023-03-12T13:02:59.828Z,9.22
2023-03-12T13:05:42.348Z,9.75
2023-03-12T13:08:58.266Z,10.73
2023-03-12T13:11:32.965Z,10.19
2023-03-12T13:14:30.222Z,11.57
2023-03-12T13:17:10.018Z,11.78
2023-03-12T13:19:51.955Z,10.37
2023-03-12T13:22:43.359Z,9.91
2023-03-12T13:25:27.009Z,8.71
2023-03-12T13:28:01.893Z,9.88
2023-03-12T13:30:53.294Z,8.76
2023-03-12T13:33:42.787Z,8.17
2023-03-12T13:36:30.693Z,8.21
2023-03-12T13:39:01.273Z,8.36
2023-03-12T13:41:35.234Z,8.45
2023-03-12T13:44:31.609Z,8.00
2023-03-12T13:47:05.460Z,7.90
2023-03-12T13:49:42.163Z,8.20
2023-03-12T13:52:22.821Z,8.33
2023-03-12T13:55:00.341Z,7.82
2023-03-12T13:57:42.910Z,8.51
2023-03-12T14:00:21.244Z,8.30
2023-03-12T14:02:55.679Z,8.23
2023-03-12T14:05:24.982Z,8.03
2023-03-12T14:08:19.210Z,8.30
2023-03-12T14:10:58.858Z,8.17
2023-03-12T14:13:40.986Z,8.21
2023-03-12T14:16:22.363Z,8.09
2023-03-12T14:18:52.466Z,8.11
2023-03-12T14:21:23.283Z,8.07
2023-03-12T14:23:56.521Z,7.93
2023-03-12T14:26:29.044Z,8.00
2023-03-12T14:29:03.614Z,7.79
2023-03-12T14:31:37.310Z,8.04
2023-03-12T14:34:11.017Z,8.03
2023-03-12T14:36:43.869Z,7.87
2023-03-12T14:39:23.543Z,8.04
2023-03-12T14:41:57.050Z,8.10
2023-03-12T14:44:27.395Z,7.93
2023-03-12T14:47:01.465Z,7.90
2023-03-12T14:49:33.917Z,8.11
2023-03-12T14:52:02.715Z,7.83
2023-03-12T14:54:31.433Z,7.69
2023-03-12T14:57:00.343Z,7.68
2023-03-12T14:59:31.997Z,7.71
2023-03-12T15:02:05.246Z,7.78
2023-03-12T15:04:35.843Z,7.65
2023-03-12T15:07:11.105Z,7.66
2023-03-12T15:09:44.036Z,7.65
2023-03-12T15:12:27.891Z,7.55
2023-03-12T15:14:56.944Z,7.65
2023-03-12T15:17:31.062Z,7.52
2023-03-12T15:19:59.866Z,7.52
2023-03-12T15:22:29.183Z,7.61
2023-03-12T15:24:59.238Z,7.69
2023-03-12T15:27:34.067Z,7.68
2023-03-12T15:30:04.801Z,7.73
2023-03-12T15:32:35.136Z,7.58
2023-03-12T15:35:14.298Z,7.47
2023-03-12T15:37:53.643Z,7.61
2023-03-12T15:40:25.968Z,7.54
2023-03-12T15:42:57.661Z,7.48
2023-03-12T15:45:37.871Z,7.55
2023-03-12T15:48:27.597Z,7.58
2023-03-12T15:50:56.205Z,7.50
2023-03-12T15:53:28.654Z,7.56
2023-03-12T15:56:05.521Z,7.42
2023-03-12T15:58:36.508Z,7.41
2023-03-12T16:01:10.902Z,7.44
2023-03-12T16:03:41.660Z,7.40
2023-03-12T16:06:14.354Z,7.34
2023-03-12T16:08:45.710Z,7.32
2023-03-12T16:11:17.817Z,7.10
2023-03-12T16:13:48.869Z,7.04
2023-03-12T16:16:18.324Z,7.03
2023-03-12T16:18:48.714Z,6.89
2023-03-12T16:21:17.690Z,6.86
2023-03-12T16:23:46.194Z,6.82
2023-03-12T16:26:16.287Z,6.64
2023-03-12T16:28:45.394Z,6.64
2023-03-12T16:31:15.011Z,6.46
2023-03-12T16:33:45.382Z,6.38
2023-03-12T16:36:19.461Z,6.31
2023-03-12T16:38:48.933Z,6.31
2023-03-12T16:41:19.439Z,6.21
2023-03-12T16:43:51.650Z,6.16
2023-03-12T16:46:23.227Z,6.11
2023-03-12T16:48:55.547Z,6.16
2023-03-12T16:51:28.409Z,5.94
2023-03-12T16:54:09.196Z,5.77
2023-03-12T16:56:38.842Z,5.59
2023-03-12T16:59:13.199Z,5.59
2023-03-12T17:01:41.540Z,5.46
2023-03-12T17:04:12.191Z,5.35
2023-03-12T17:06:42.073Z,5.19
2023-03-12T17:09:13.346Z,5.10
2023-03-12T17:11:42.174Z,5.00
2023-03-12T17:14:19.105Z,4.88
2023-03-12T17:16:47.863Z,4.77
2023-03-12T17:19:17.140Z,4.76
2023-03-12T17:21:48.134Z,4.67
2023-03-12T17:24:17.887Z,4.62
2023-03-12T17:26:52.068Z,4.62
2023-03-12T17:29:21.825Z,4.59
2023-03-12T17:31:53.766Z,4.66
2023-03-12T17:34:22.386Z,4.76
2023-03-12T17:36:53.275Z,4.69
2023-03-12T17:39:24.604Z,4.76
2023-03-12T17:41:53.863Z,4.70
2023-03-12T17:44:22.133Z,4.69
2023-03-12T17:46:59.647Z,4.53
2023-03-12T17:49:31.411Z,4.49
2023-03-12T17:53:22.294Z,4.52
2023-03-12T17:55:56.607Z,4.36
2023-03-12T17:58:26.834Z,4.15
2023-03-12T18:01:00.463Z,3.95
2023-03-12T18:03:29.010Z,3.87
2023-03-12T18:06:00.197Z,3.69
2023-03-12T18:08:29.189Z,3.52
2023-03-12T18:10:59.236Z,3.39
2023-03-12T18:13:31.356Z,3.25
2023-03-12T18:16:01.506Z,3.08
2023-03-12T18:18:32.957Z,3.04
2023-03-12T18:21:01.877Z,2.99
2023-03-12T18:23:32.832Z,2.88
2023-03-12T18:26:04.112Z,2.91
2023-03-12T18:28:35.526Z,2.80
2023-03-12T18:31:05.029Z,2.73
2023-03-12T18:33:36.406Z,2.51
2023-03-12T18:36:05.628Z,2.26
2023-03-12T18:38:36.629Z,2.15
2023-03-12T18:41:09.436Z,2.10
2023-03-12T18:43:39.764Z,2.06
2023-03-12T18:46:11.643Z,1.91
2023-03-12T18:48:44.284Z,1.77
2023-03-12T18:51:13.656Z,1.68
2023-03-12T18:53:46.022Z,1.72
2023-03-12T18:56:20.644Z,1.77
2023-03-12T18:58:48.657Z,1.68
2023-03-12T19:01:18.489Z,1.64
2023-03-12T19:03:48.123Z,1.62
2023-03-12T19:06:18.380Z,1.60
2023-03-12T19:08:48.694Z,1.43
2023-03-12T19:11:20.967Z,1.29
2023-03-12T19:13:53.247Z,1.19
2023-03-12T19:16:23.422Z,0.99
2023-03-12T19:18:53.912Z,0.93
2023-03-12T19:21:24.605Z,0.92
2023-03-12T19:23:55.721Z,0.95
2023-03-12T19:26:27.015Z,0.96
2023-03-12T19:28:55.690Z,0.92
2023-03-12T19:31:26.625Z,0.91
2023-03-12T19:33:55.659Z,0.97
2023-03-12T19:36:24.355Z,0.89
2023-03-12T19:38:53.182Z,0.88
2023-03-12T19:41:23.286Z,0.82
2023-03-12T19:43:53.291Z,0.75
2023-03-12T19:46:22.407Z,0.66
2023-03-12T19:48:51.642Z,0.62
2023-03-12T19:51:21.664Z,0.64
2023-03-12T19:53:51.732Z,0.66
2023-03-12T19:56:21.087Z,0.71
2023-03-12T19:58:50.480Z,0.53
2023-03-12T20:01:21.861Z,0.37
2023-03-12T20:03:50.437Z,0.30
2023-03-12T20:06:18.705Z,0.37
2023-03-12T20:08:49.271Z,0.30
2023-03-12T20:11:18.060Z,0.18
2023-03-12T20:13:46.996Z,0.07
2023-03-12T20:16:15.445Z,-0.03
2023-03-12T20:18:45.605Z,-0.05
2023-03-12T20:21:14.090Z,0.05
2023-03-12T20:23:44.476Z,0.02
2023-03-12T20:26:14.806Z,-0.04
2023-03-12T20:28:43.220Z,-0.05
2023-03-12T20:31:12.949Z,-0.15
2023-03-12T20:33:41.674Z,-0.21
2023-03-12T20:36:14.354Z,-0.24
2023-03-12T20:38:42.828Z,-0.26
2023-03-12T20:41:14.147Z,-0.35
2023-03-12T20:43:43.089Z,-0.38
2023-03-12T20:46:12.064Z,-0.22
2023-03-12T20:48:40.886Z,-0.15
2023-03-12T20:51:13.933Z,-0.21
2023-03-12T20:53:42.486Z,-0.10
2023-03-12T20:56:11.618Z,-0.05
2023-03-12T20:58:40.346Z,0.03
2023-03-12T21:01:09.166Z,-0.13
2023-03-12T21:03:37.520Z,-0.34
2023-03-12T21:06:07.210Z,-0.41
2023-03-12T21:08:37.145Z,-0.49
2023-03-12T21:11:06.873Z,-0.45
2023-03-12T21:13:37.418Z,-0.45
2023-03-12T21:16:07.093Z,-0.42
2023-03-12T21:18:35.755Z,-0.39
2023-03-12T21:21:07.257Z,-0.13
2023-03-12T21:23:40.918Z,-0.22
2023-03-12T21:26:12.932Z,-0.29
2023-03-12T21:28:41.762Z,-0.24
2023-03-12T21:31:12.164Z,-0.15
2023-03-12T21:33:41.191Z,-0.17
2023-03-12T21:36:11.465Z,-0.14
2023-03-12T21:38:45.132Z,-0.01
2023-03-12T21:41:17.625Z,0.13
2023-03-12T21:43:47.521Z,0.28
2023-03-12T21:46:19.465Z,0.53
2023-03-12T21:48:49.406Z,0.83
2023-03-12T21:51:19.198Z,1.04
2023-03-12T21:53:53.199Z,1.29
2023-03-12T21:56:21.345Z,1.52
2023-03-12T21:58:50.467Z,1.71
2023-03-12T22:01:20.572Z,1.83
2023-03-12T22:03:49.418Z,1.97
2023-03-12T22:06:18.370Z,2.01
2023-03-12T22:08:49.529Z,2.18
2023-03-12T22:11:18.120Z,2.16
2023-03-12T22:13:46.445Z,2.16
2023-03-12T22:16:16.380Z,2.29
2023-03-12T22:18:46.799Z,2.32
2023-03-12T22:21:18.822Z,2.36
2023-03-12T22:23:51.017Z,2.43
2023-03-12T22:26:24.723Z,2.44
2023-03-12T22:28:58.065Z,2.54
2023-03-12T22:31:27.967Z,2.57
2023-03-12T22:33:59.931Z,2.54
2023-03-12T22:36:28.617Z,2.54
2023-03-12T22:39:00.581Z,2.70
2023-03-12T22:41:30.786Z,2.68
2023-03-12T22:44:04.184Z,2.68
2023-03-12T22:46:33.329Z,2.68
2023-03-12T22:49:04.053Z,2.76
2023-03-12T22:51:33.750Z,2.76
2023-03-12T22:54:04.826Z,2.81
2023-03-12T22:56:33.102Z,2.78
2023-03-12T22:59:01.428Z,2.77
2023-03-12T23:01:30.080Z,2.78
2023-03-12T23:04:00.100Z,2.77
2023-03-12T23:06:30.154Z,2.76
2023-03-12T23:08:59.452Z,2.78
2023-03-12T23:11:30.814Z,2.87
2023-03-12T23:14:00.697Z,2.81
2023-03-12T23:16:30.056Z,2.80
2023-03-12T23:18:58.302Z,2.78
2023-03-12T23:21:27.819Z,2.83
2023-03-12T23:24:01.187Z,2.77
2023-03-12T23:26:32.132Z,2.73
2023-03-12T23:29:00.586Z,2.76
2023-03-12T23:31:31.641Z,2.77
2023-03-12T23:34:02.035Z,2.80
2023-03-12T23:36:30.878Z,2.68
2023-03-12T23:39:01.524Z,2.68
2023-03-12T23:41:34.321Z,2.68
2023-03-12T23:44:02.778Z,2.77
2023-03-12T23:46:31.232Z,2.88
2023-03-12T23:49:04.831Z,3.01
2023-03-12T23:51:36.560Z,3.13
2023-03-12T23:54:07.269Z,3.27
2023-03-12T23:56:39.424Z,3.29
2023-03-12T23:59:15.933Z,3.35
